createdAt,value
2018-07-26T00:01:49.447Z,18.27
2018-07-26T00:04:18.062Z,18.22
2018-07-26T00:06:46.736Z,18.26
2018-07-26T00:09:15.342Z,18.29
2018-07-26T00:11:43.959Z,18.28
2018-07-26T00:14:12.618Z,18.30
2018-07-26T00:16:41.229Z,18.29
2018-07-26T00:19:09.819Z,18.24
2018-07-26T00:21:38.465Z,18.23
2018-07-26T00:24:07.087Z,18.19
2018-07-26T00:26:35.757Z,18.19
2018-07-26T00:29:04.819Z,18.14
2018-07-26T00:31:33.430Z,18.07
2018-07-26T00:34:02.047Z,18.06
2018-07-26T00:36:30.668Z,18.04
2018-07-26T00:38:59.331Z,18.05
2018-07-26T00:41:28.067Z,18.06
2018-07-26T00:43:56.787Z,18.08
2018-07-26T00:46:25.374Z,18.11
2018-07-26T00:48:53.992Z,18.03
2018-07-26T00:51:22.649Z,18.09
2018-07-26T00:53:51.263Z,18.12
2018-07-26T00:56:19.946Z,18.13
2018-07-26T00:58:48.633Z,18.12
2018-07-26T01:01:17.548Z,18.15
2018-07-26T01:03:46.212Z,18.22
2018-07-26T01:06:14.827Z,18.15
2018-07-26T01:08:43.451Z,18.25
2018-07-26T01:11:12.081Z,18.28
2018-07-26T01:13:40.714Z,18.29
2018-07-26T01:16:09.372Z,18.29
2018-07-26T01:18:37.984Z,18.22
2018-07-26T01:21:06.742Z,18.25
2018-07-26T01:23:35.546Z,18.27
2018-07-26T01:26:04.182Z,18.28
2018-07-26T01:28:32.804Z,18.24
2018-07-26T01:31:01.439Z,18.24
2018-07-26T01:33:30.090Z,18.23
2018-07-26T01:35:58.763Z,18.21
2018-07-26T01:38:27.401Z,18.30
2018-07-26T01:40:56.062Z,18.29
2018-07-26T01:43:44.133Z,18.30
2018-07-26T01:46:12.813Z,18.33
2018-07-26T01:48:42.338Z,18.30
2018-07-26T01:51:11.605Z,18.35
2018-07-26T01:53:40.242Z,18.36
2018-07-26T01:56:09.911Z,18.33
2018-07-26T01:58:38.494Z,18.33
2018-07-26T02:01:08.519Z,18.29
2018-07-26T02:03:37.614Z,18.24
2018-07-26T02:06:06.312Z,18.23
2018-07-26T02:08:35.063Z,18.18
2018-07-26T02:11:03.906Z,18.22
2018-07-26T02:13:33.132Z,18.20
2018-07-26T02:16:01.740Z,18.17
2018-07-26T02:18:30.430Z,18.13
2018-07-26T02:20:59.061Z,18.16
2018-07-26T02:23:27.665Z,18.11
2018-07-26T02:25:56.300Z,18.12
2018-07-26T02:28:24.926Z,18.17
2018-07-26T02:30:53.546Z,18.20
2018-07-26T02:33:22.146Z,18.22
2018-07-26T02:35:50.779Z,18.14
2018-07-26T02:38:19.391Z,18.21
2018-07-26T02:40:48.022Z,18.22
2018-07-26T02:43:16.683Z,18.22
2018-07-26T02:45:45.294Z,18.29
2018-07-26T02:48:13.923Z,18.28
2018-07-26T02:50:42.568Z,18.25
2018-07-26T02:53:11.207Z,18.22
2018-07-26T02:55:39.791Z,18.26
2018-07-26T02:58:08.465Z,18.19
2018-07-26T03:00:37.104Z,18.14
2018-07-26T03:03:05.747Z,18.12
2018-07-26T03:05:34.440Z,18.14
2018-07-26T03:08:03.130Z,18.10
2018-07-26T03:10:31.785Z,18.06
2018-07-26T03:13:00.420Z,18.13
2018-07-26T03:15:29.015Z,18.15
2018-07-26T03:17:57.714Z,18.10
2018-07-26T03:20:26.338Z,18.12
2018-07-26T03:22:54.971Z,18.04
2018-07-26T03:25:23.603Z,18.10
2018-07-26T03:27:52.246Z,18.14
2018-07-26T03:30:20.884Z,18.18
2018-07-26T03:32:49.458Z,18.21
2018-07-26T03:35:18.123Z,18.24
2018-07-26T03:37:46.718Z,18.26
2018-07-26T03:40:15.347Z,18.42
2018-07-26T03:42:43.963Z,18.43
2018-07-26T03:45:12.631Z,18.43
2018-07-26T03:47:41.227Z,18.42
2018-07-26T03:50:09.934Z,18.47
2018-07-26T03:52:38.616Z,18.45
2018-07-26T03:55:07.277Z,18.55
2018-07-26T03:57:35.927Z,18.62
2018-07-26T04:00:08.448Z,18.61
2018-07-26T04:02:37.148Z,18.65
2018-07-26T04:05:05.840Z,18.60
2018-07-26T04:07:34.572Z,18.57
2018-07-26T04:10:03.223Z,18.55
2018-07-26T04:12:31.948Z,18.50
2018-07-26T04:15:00.611Z,18.52
2018-07-26T04:17:29.255Z,18.52
2018-07-26T04:19:57.906Z,18.56
2018-07-26T04:22:26.671Z,18.62
2018-07-26T04:24:55.369Z,18.63
2018-07-26T04:27:23.970Z,18.65
2018-07-26T04:29:52.647Z,18.63
2018-07-26T04:32:21.283Z,18.67
2018-07-26T04:34:49.866Z,18.72
2018-07-26T04:37:18.519Z,18.78
2018-07-26T04:39:47.214Z,18.81
2018-07-26T04:42:15.857Z,18.89
2018-07-26T04:44:44.447Z,18.87
2018-07-26T04:47:13.099Z,18.94
2018-07-26T04:49:41.686Z,18.98
2018-07-26T04:52:10.337Z,18.99
2018-07-26T04:54:39.007Z,19.06
2018-07-26T04:57:07.588Z,19.10
2018-07-26T04:59:36.210Z,19.16
2018-07-26T05:02:05.007Z,19.28
2018-07-26T05:04:33.608Z,19.34
2018-07-26T05:07:02.238Z,19.38
2018-07-26T05:09:30.965Z,19.51
2018-07-26T05:11:59.603Z,19.55
2018-07-26T05:14:28.219Z,19.65
2018-07-26T05:16:56.874Z,19.69
2018-07-26T05:19:25.519Z,19.69
2018-07-26T05:21:54.198Z,19.69
2018-07-26T05:24:22.811Z,19.56
2018-07-26T05:26:51.438Z,19.44
2018-07-26T05:29:20.081Z,19.38
2018-07-26T05:31:48.696Z,19.47
2018-07-26T05:34:17.324Z,19.48
2018-07-26T05:36:45.971Z,19.56
2018-07-26T05:39:14.614Z,19.72
2018-07-26T05:41:43.293Z,19.73
2018-07-26T05:44:11.953Z,19.75
2018-07-26T05:46:40.565Z,19.96
2018-07-26T05:49:09.162Z,20.18
2018-07-26T05:51:37.782Z,20.39
2018-07-26T05:54:06.479Z,20.51
2018-07-26T05:56:35.108Z,20.53
2018-07-26T05:59:03.744Z,20.56
2018-07-26T06:01:32.354Z,20.65
2018-07-26T06:04:00.962Z,20.61
2018-07-26T06:06:29.638Z,20.48
2018-07-26T06:08:58.346Z,20.47
2018-07-26T06:11:26.954Z,20.30
2018-07-26T06:13:55.602Z,20.16
2018-07-26T06:16:24.287Z,20.16
2018-07-26T06:18:52.907Z,20.16
2018-07-26T06:21:21.579Z,20.27
2018-07-26T06:23:50.223Z,20.25
2018-07-26T06:26:18.825Z,20.33
2018-07-26T06:28:47.484Z,20.47
2018-07-26T06:31:16.286Z,20.53
2018-07-26T06:33:44.948Z,20.61
2018-07-26T06:36:13.634Z,20.76
2018-07-26T06:38:42.282Z,20.83
2018-07-26T06:41:11.018Z,20.87
2018-07-26T06:43:39.710Z,20.87
2018-07-26T06:46:08.699Z,21.00
2018-07-26T06:48:37.356Z,21.24
2018-07-26T06:51:06.080Z,21.42
2018-07-26T06:53:35.527Z,21.61
2018-07-26T06:56:04.176Z,21.93
2018-07-26T06:58:32.794Z,22.13
2018-07-26T07:01:01.438Z,22.04
2018-07-26T07:03:30.223Z,22.09
2018-07-26T07:05:58.842Z,21.91
2018-07-26T07:08:27.518Z,22.13
2018-07-26T07:10:56.342Z,22.13
2018-07-26T07:13:25.432Z,22.07
2018-07-26T07:15:54.127Z,22.02
2018-07-26T07:18:22.813Z,21.99
2018-07-26T07:20:51.458Z,21.80
2018-07-26T07:23:20.106Z,21.92
2018-07-26T07:25:48.755Z,22.01
2018-07-26T07:28:17.368Z,22.03
2018-07-26T07:30:46.013Z,22.14
2018-07-26T07:33:14.731Z,22.14
2018-07-26T07:35:43.422Z,22.17
2018-07-26T07:38:12.138Z,22.38
2018-07-26T07:40:40.964Z,22.31
2018-07-26T07:43:09.610Z,22.25
2018-07-26T07:45:38.257Z,22.46
2018-07-26T07:48:06.890Z,22.41
2018-07-26T07:50:35.577Z,22.26
2018-07-26T07:53:04.374Z,22.53
2018-07-26T07:55:34.024Z,22.75
2018-07-26T07:58:02.630Z,22.81
2018-07-26T08:00:31.241Z,22.88
2018-07-26T08:02:59.847Z,22.97
2018-07-26T08:05:28.474Z,23.18
2018-07-26T08:07:57.144Z,23.17
2018-07-26T08:10:25.871Z,23.32
2018-07-26T08:12:54.703Z,23.59
2018-07-26T08:15:23.411Z,23.85
2018-07-26T08:17:52.091Z,24.02
2018-07-26T08:20:20.735Z,24.03
2018-07-26T08:22:49.442Z,24.02
2018-07-26T08:25:18.239Z,23.64
2018-07-26T08:27:46.846Z,24.18
2018-07-26T08:30:15.968Z,24.20
2018-07-26T08:32:44.597Z,24.41
2018-07-26T08:35:13.317Z,24.35
2018-07-26T08:37:41.951Z,24.50
2018-07-26T08:40:10.714Z,24.52
2018-07-26T08:42:39.323Z,24.59
2018-07-26T08:45:07.962Z,24.46
2018-07-26T08:47:36.574Z,24.49
2018-07-26T08:50:06.084Z,24.64
2018-07-26T08:52:34.721Z,24.77
2018-07-26T08:55:03.351Z,24.88
2018-07-26T08:57:31.982Z,24.77
2018-07-26T09:00:00.624Z,24.75
2018-07-26T09:02:29.684Z,24.99
2018-07-26T09:04:58.348Z,25.16
2018-07-26T09:07:27.042Z,25.28
2018-07-26T09:09:55.912Z,25.42
2018-07-26T09:12:24.585Z,25.59
2018-07-26T09:14:53.255Z,25.60
2018-07-26T09:17:21.924Z,25.89
2018-07-26T09:19:50.592Z,26.09
2018-07-26T09:22:19.238Z,26.17
2018-07-26T09:24:47.867Z,26.21
2018-07-26T09:27:16.444Z,26.09
2018-07-26T09:29:45.095Z,25.88
2018-07-26T09:32:13.867Z,25.93
2018-07-26T09:34:42.553Z,26.08
2018-07-26T09:37:11.173Z,25.98
2018-07-26T09:39:39.760Z,26.12
2018-07-26T09:42:08.412Z,26.24
2018-07-26T09:44:37.013Z,26.55
2018-07-26T09:47:05.803Z,26.80
2018-07-26T09:49:34.511Z,26.87
2018-07-26T09:52:03.091Z,27.00
2018-07-26T09:54:31.686Z,26.89
2018-07-26T09:57:00.299Z,26.81
2018-07-26T09:59:28.928Z,27.16
2018-07-26T10:01:57.546Z,27.08
2018-07-26T10:04:26.936Z,27.23
2018-07-26T10:06:55.667Z,27.34
2018-07-26T10:09:24.263Z,27.00
2018-07-26T10:11:52.885Z,27.12
2018-07-26T10:14:21.666Z,27.20
2018-07-26T10:16:50.244Z,27.34
2018-07-26T10:19:18.908Z,27.27
2018-07-26T10:21:47.560Z,27.11
2018-07-26T10:24:16.280Z,26.96
2018-07-26T10:26:44.907Z,26.82
2018-07-26T10:29:13.534Z,26.67
2018-07-26T10:31:42.111Z,26.76
2018-07-26T10:34:10.677Z,26.74
2018-07-26T10:36:39.339Z,26.99
2018-07-26T10:39:09.775Z,27.29
2018-07-26T10:41:38.459Z,27.55
2018-07-26T10:44:07.188Z,27.72
2018-07-26T10:46:35.783Z,27.69
2018-07-26T10:49:04.429Z,27.92
2018-07-26T10:51:33.190Z,28.16
2018-07-26T10:54:01.814Z,28.22
2018-07-26T10:56:30.460Z,28.17
2018-07-26T10:58:59.032Z,28.09
2018-07-26T11:01:27.690Z,28.04
2018-07-26T11:03:56.622Z,27.97
2018-07-26T11:06:25.341Z,27.96
2018-07-26T11:08:53.956Z,27.99
2018-07-26T11:11:22.639Z,28.00
2018-07-26T11:13:51.280Z,27.80
2018-07-26T11:16:19.898Z,27.61
2018-07-26T11:18:48.527Z,27.32
2018-07-26T11:21:17.145Z,27.19
2018-07-26T11:23:45.768Z,27.29
2018-07-26T11:26:14.776Z,27.01
2018-07-26T11:28:43.437Z,27.17
2018-07-26T11:31:12.071Z,27.77
2018-07-26T11:33:40.680Z,28.77
2018-07-26T11:36:09.427Z,28.54
2018-07-26T11:38:38.033Z,28.40
2018-07-26T11:41:06.635Z,27.82
2018-07-26T11:43:35.375Z,27.62
2018-07-26T11:46:04.119Z,27.22
2018-07-26T11:48:32.781Z,26.87
2018-07-26T11:51:01.482Z,26.74
2018-07-26T11:53:30.166Z,26.61
2018-07-26T11:55:58.806Z,26.46
2018-07-26T11:58:27.455Z,26.51
2018-07-26T12:00:56.554Z,26.18
2018-07-26T12:03:25.230Z,26.09
2018-07-26T12:05:53.966Z,25.81
2018-07-26T12:08:22.584Z,25.81
2018-07-26T12:10:51.246Z,25.59
2018-07-26T12:13:19.896Z,25.47
2018-07-26T12:15:49.172Z,25.31
2018-07-26T12:18:17.781Z,25.26
2018-07-26T12:20:46.419Z,25.24
2018-07-26T12:23:15.698Z,25.22
2018-07-26T12:25:44.335Z,25.17
2018-07-26T12:28:12.935Z,25.05
2018-07-26T12:30:41.587Z,25.00
2018-07-26T12:33:10.360Z,25.04
2018-07-26T12:35:39.080Z,25.17
2018-07-26T12:38:07.736Z,25.21
2018-07-26T12:40:36.426Z,25.14
2018-07-26T12:43:05.180Z,25.19
2018-07-26T12:45:34.014Z,25.22
2018-07-26T12:48:02.654Z,25.10
2018-07-26T12:50:31.655Z,25.10
2018-07-26T12:53:00.397Z,25.12
2018-07-26T12:55:29.588Z,25.16
2018-07-26T12:57:58.129Z,25.25
2018-07-26T13:00:26.750Z,25.25
2018-07-26T13:02:55.464Z,25.29
2018-07-26T13:05:24.119Z,25.14
2018-07-26T13:07:52.738Z,25.08
2018-07-26T13:10:21.344Z,25.19
2018-07-26T13:12:50.010Z,25.20
2018-07-26T13:15:18.644Z,25.35
2018-07-26T13:17:47.259Z,25.40
2018-07-26T13:20:16.011Z,25.39
2018-07-26T13:22:44.671Z,25.48
2018-07-26T13:25:13.358Z,25.65
2018-07-26T13:27:41.972Z,25.74
2018-07-26T13:30:10.566Z,25.84
2018-07-26T13:32:39.244Z,25.94
2018-07-26T13:35:07.938Z,26.13
2018-07-26T13:37:36.632Z,26.21
2018-07-26T13:40:05.353Z,26.33
2018-07-26T13:42:34.155Z,26.37
2018-07-26T13:45:02.783Z,26.47
2018-07-26T13:47:31.389Z,26.43
2018-07-26T13:50:00.126Z,26.34
2018-07-26T13:52:28.801Z,26.59
2018-07-26T13:54:57.391Z,26.16
2018-07-26T13:57:26.015Z,26.07
2018-07-26T14:02:32.668Z,26.19
2018-07-26T14:05:01.264Z,26.34
2018-07-26T14:07:29.891Z,26.40
2018-07-26T14:09:58.481Z,26.46
2018-07-26T14:12:27.195Z,26.43
2018-07-26T14:14:55.792Z,26.62
2018-07-26T14:17:24.541Z,26.58
2018-07-26T14:19:53.147Z,26.59
2018-07-26T14:22:21.789Z,26.48
2018-07-26T14:24:50.918Z,26.43
2018-07-26T14:27:19.551Z,26.25
2018-07-26T14:29:48.266Z,26.27
2018-07-26T14:32:16.867Z,26.19
2018-07-26T14:34:45.442Z,26.31
2018-07-26T14:37:14.070Z,26.34
2018-07-26T14:39:42.672Z,26.37
2018-07-26T14:42:11.349Z,26.47
2018-07-26T14:44:40.120Z,26.51
2018-07-26T14:47:08.846Z,26.53
2018-07-26T14:49:37.503Z,26.58
2018-07-26T14:52:06.143Z,26.60
2018-07-26T14:54:34.844Z,26.57
2018-07-26T14:57:03.476Z,26.54
2018-07-26T14:59:32.134Z,26.08
2018-07-26T15:02:00.755Z,26.38
2018-07-26T15:04:29.513Z,26.32
2018-07-26T15:06:58.209Z,26.36
2018-07-26T15:09:26.993Z,26.24
2018-07-26T15:11:55.615Z,25.98
2018-07-26T15:14:24.344Z,25.85
2018-07-26T15:16:52.920Z,25.55
2018-07-26T15:19:21.543Z,25.60
2018-07-26T15:21:50.519Z,25.60
2018-07-26T15:24:19.137Z,25.56
2018-07-26T15:26:47.850Z,25.33
2018-07-26T15:29:17.500Z,24.97
2018-07-26T15:31:46.133Z,24.87
2018-07-26T15:34:14.774Z,24.63
2018-07-26T15:36:43.473Z,24.63
2018-07-26T15:39:12.162Z,24.43
2018-07-26T15:41:44.874Z,24.43
2018-07-26T15:44:14.887Z,24.35
2018-07-26T15:46:43.573Z,24.20
2018-07-26T15:49:12.534Z,24.24
2018-07-26T15:51:41.178Z,24.29
2018-07-26T15:54:09.795Z,24.16
2018-07-26T15:56:38.572Z,24.13
2018-07-26T15:59:07.195Z,24.11
2018-07-26T16:01:35.853Z,24.13
2018-07-26T16:04:04.533Z,24.12
2018-07-26T16:06:33.196Z,23.91
2018-07-26T16:09:01.879Z,23.75
2018-07-26T16:11:30.583Z,23.96
2018-07-26T16:13:59.257Z,23.97
2018-07-26T16:16:27.894Z,24.08
2018-07-26T16:18:56.534Z,24.40
2018-07-26T16:21:25.197Z,24.71
2018-07-26T16:23:53.886Z,25.11
2018-07-26T16:26:22.532Z,24.99
2018-07-26T16:28:51.150Z,25.10
2018-07-26T16:31:19.890Z,25.34
2018-07-26T16:33:48.559Z,25.50
2018-07-26T16:36:17.202Z,25.72
2018-07-26T16:38:45.862Z,25.15
2018-07-26T16:41:14.696Z,24.74
2018-07-26T16:43:43.433Z,24.22
2018-07-26T16:46:12.074Z,24.10
2018-07-26T16:48:40.981Z,24.48
2018-07-26T16:51:09.645Z,24.96
2018-07-26T16:53:38.290Z,25.23
2018-07-26T16:56:06.953Z,25.33
2018-07-26T16:58:35.772Z,25.32
2018-07-26T17:01:04.406Z,25.09
2018-07-26T17:03:33.097Z,24.98
2018-07-26T17:06:01.704Z,24.74
2018-07-26T17:08:30.334Z,24.95
2018-07-26T17:10:59.047Z,24.97
2018-07-26T17:13:28.062Z,24.86
2018-07-26T17:15:56.745Z,24.79
2018-07-26T17:18:25.446Z,24.74
2018-07-26T17:20:54.065Z,24.55
2018-07-26T17:23:22.749Z,24.43
2018-07-26T17:25:51.433Z,24.11
2018-07-26T17:28:20.090Z,23.87
2018-07-26T17:30:48.733Z,23.66
2018-07-26T17:33:17.354Z,23.71
2018-07-26T17:35:46.578Z,23.73
2018-07-26T17:38:15.273Z,23.77
2018-07-26T17:40:43.961Z,23.80
2018-07-26T17:43:12.595Z,23.79
2018-07-26T17:45:41.261Z,23.67
2018-07-26T17:48:09.921Z,23.42
2018-07-26T17:50:38.593Z,23.33
2018-07-26T17:53:07.456Z,23.24
2018-07-26T17:55:37.088Z,23.29
2018-07-26T17:58:05.787Z,23.18
2018-07-26T18:00:34.531Z,23.13
2018-07-26T18:03:03.263Z,23.05
2018-07-26T18:05:32.021Z,23.08
2018-07-26T18:08:00.907Z,23.05
2018-07-26T18:10:30.663Z,23.01
2018-07-26T18:13:00.068Z,22.95
2018-07-26T18:15:28.864Z,22.91
2018-07-26T18:17:57.532Z,22.88
2018-07-26T18:20:26.859Z,22.88
2018-07-26T18:22:55.542Z,22.93
2018-07-26T18:25:24.568Z,22.84
2018-07-26T18:27:53.230Z,22.85
2018-07-26T18:30:21.929Z,22.83
2018-07-26T18:32:50.571Z,22.81
2018-07-26T18:35:19.273Z,22.85
2018-07-26T18:37:47.938Z,22.76
2018-07-26T18:40:17.798Z,22.73
2018-07-26T18:42:47.466Z,22.64
2018-07-26T18:45:16.136Z,22.64
2018-07-26T18:47:44.896Z,22.63
2018-07-26T18:50:13.580Z,22.63
2018-07-26T18:52:43.013Z,22.51
2018-07-26T18:55:11.662Z,22.52
2018-07-26T18:57:40.724Z,22.42
2018-07-26T19:00:12.460Z,22.48
2018-07-26T19:02:41.440Z,22.41
2018-07-26T19:05:10.241Z,22.36
2018-07-26T19:07:39.830Z,22.36
2018-07-26T19:10:10.733Z,22.33
2018-07-26T19:12:39.827Z,22.30
2018-07-26T19:15:11.094Z,22.26
2018-07-26T19:20:09.221Z,22.13
2018-07-26T19:22:38.625Z,22.01
2018-07-26T19:25:09.490Z,21.89
2018-07-26T19:27:39.889Z,21.75
2018-07-26T19:30:11.301Z,21.73
2018-07-26T19:32:39.948Z,21.71
2018-07-26T19:35:10.130Z,21.65
2018-07-26T19:37:38.765Z,21.58
2018-07-26T19:40:09.079Z,21.56
2018-07-26T19:42:38.082Z,21.60
2018-07-26T19:45:07.926Z,21.65
2018-07-26T19:47:36.663Z,21.69
2018-07-26T19:50:05.610Z,21.74
2018-07-26T19:52:34.227Z,21.70
2018-07-26T19:55:03.238Z,21.53
2018-07-26T19:57:31.942Z,21.30
2018-07-26T20:00:00.582Z,21.14
2018-07-26T20:02:29.277Z,21.08
2018-07-26T20:04:58.016Z,20.98
2018-07-26T20:07:27.345Z,20.95
2018-07-26T20:09:56.092Z,21.01
2018-07-26T20:12:24.689Z,21.03
2018-07-26T20:14:53.336Z,21.04
2018-07-26T20:17:22.003Z,20.97
2018-07-26T20:19:50.712Z,20.95
2018-07-26T20:22:19.504Z,20.89
2018-07-26T20:24:48.189Z,20.90
2018-07-26T20:27:16.854Z,20.92
2018-07-26T20:29:50.702Z,20.93
2018-07-26T20:32:23.129Z,20.87
2018-07-26T20:34:52.038Z,20.91
2018-07-26T20:37:20.797Z,20.86
2018-07-26T20:39:49.426Z,20.87
2018-07-26T20:42:18.142Z,20.76
2018-07-26T20:44:46.734Z,20.74
2018-07-26T20:47:15.341Z,20.81
2018-07-26T20:49:46.121Z,20.78
2018-07-26T20:52:14.865Z,20.73
2018-07-26T20:54:43.486Z,20.66
2018-07-26T20:57:12.167Z,20.73
2018-07-26T20:59:40.984Z,20.72
2018-07-26T21:02:10.144Z,20.56
2018-07-26T21:04:39.465Z,20.55
2018-07-26T21:07:08.189Z,20.47
2018-07-26T21:09:36.826Z,20.46
2018-07-26T21:12:05.515Z,20.38
2018-07-26T21:14:34.195Z,20.40
2018-07-26T21:17:02.837Z,20.41
2018-07-26T21:19:31.633Z,20.40
2018-07-26T21:22:00.248Z,20.40
2018-07-26T21:24:28.951Z,20.38
2018-07-26T21:26:57.567Z,20.33
2018-07-26T21:29:26.179Z,20.34
2018-07-26T21:31:54.893Z,20.42
2018-07-26T21:34:23.510Z,20.50
2018-07-26T21:36:52.144Z,20.51
2018-07-26T21:39:20.725Z,20.49
2018-07-26T21:41:49.372Z,20.45
2018-07-26T21:44:18.024Z,20.49
2018-07-26T21:46:46.863Z,20.47
2018-07-26T21:49:15.520Z,20.42
2018-07-26T21:51:44.132Z,20.34
2018-07-26T21:54:13.816Z,20.24
2018-07-26T21:56:42.483Z,20.11
2018-07-26T21:59:11.139Z,20.13
2018-07-26T22:01:39.786Z,20.17
2018-07-26T22:04:08.469Z,20.17
2018-07-26T22:06:39.199Z,20.12
2018-07-26T22:09:14.400Z,20.19
2018-07-26T22:11:43.044Z,20.19
2018-07-26T22:14:11.781Z,20.20
2018-07-26T22:16:40.440Z,20.13
2018-07-26T22:19:09.076Z,20.00
2018-07-26T22:21:37.809Z,19.92
2018-07-26T22:24:06.549Z,19.84
2018-07-26T22:26:35.249Z,19.86
2018-07-26T22:29:03.957Z,19.88
2018-07-26T22:31:32.714Z,19.95
2018-07-26T22:34:01.342Z,20.01
2018-07-26T22:36:30.025Z,20.01
2018-07-26T22:38:58.717Z,20.07
2018-07-26T22:41:27.357Z,20.06
2018-07-26T22:43:56.021Z,20.11
2018-07-26T22:46:24.723Z,20.09
2018-07-26T22:48:53.621Z,20.07
2018-07-26T22:51:22.323Z,20.14
2018-07-26T22:53:50.943Z,20.11
2018-07-26T22:56:19.623Z,20.11
2018-07-26T22:58:48.330Z,20.12
2018-07-26T23:01:16.985Z,20.15
2018-07-26T23:03:45.663Z,20.11
2018-07-26T23:06:14.331Z,19.92
2018-07-26T23:08:42.984Z,19.83
2018-07-26T23:11:11.694Z,19.79
2018-07-26T23:13:40.390Z,19.66
2018-07-26T23:16:09.089Z,19.82
2018-07-26T23:18:37.745Z,19.93
2018-07-26T23:21:06.698Z,19.96
2018-07-26T23:23:35.301Z,19.95
2018-07-26T23:26:03.938Z,19.83
2018-07-26T23:28:32.631Z,19.74
2018-07-26T23:31:01.254Z,19.68
2018-07-26T23:33:30.058Z,19.64
2018-07-26T23:35:58.740Z,19.63
2018-07-26T23:38:27.396Z,19.57
2018-07-26T23:40:56.061Z,19.59
2018-07-26T23:43:24.726Z,19.57
2018-07-26T23:45:53.530Z,19.53
2018-07-26T23:48:22.326Z,19.54
2018-07-26T23:50:51.073Z,19.59
2018-07-26T23:53:19.705Z,19.65
2018-07-26T23:55:48.342Z,19.64
2018-07-26T23:58:17.761Z,19.60
